Time;durP1;ratioP1;P1;durP2;ratioP2;P2;SDS_P1;SDS_P2;PMS_P1;PMS_P2;Temp;Humidity;BMP_temperature;BMP_pressure;BME280_temperature;BME280_humidity;BME280_pressure;Samples;Min_cycle;Max_cycle;Signal;HPM_P1;HPM_P2
2023/09/13 00:00:31;;;;;;;34.13;24.42;;;21.90;68.10;;;;;;5046539;28;20220;-33
2023/09/13 00:02:58;;;;;;;29.38;23.65;;;21.90;68.10;;;;;;5061830;28;20228;-34
2023/09/13 00:05:28;;;;;;;31.17;23.90;;;21.90;68.10;;;;;;5048431;28;20199;-34
2023/09/13 00:07:55;;;;;;;29.65;24.15;;;21.90;68.20;;;;;;5061690;28;20632;-34
2023/09/13 00:10:24;;;;;;;30.02;24.33;;;21.90;68.10;;;;;;5047105;28;20688;-34
2023/09/13 00:12:52;;;;;;;32.47;25.48;;;21.90;68.30;;;;;;5046737;28;20204;-34
2023/09/13 00:15:23;;;;;;;34.65;23.85;;;21.90;68.20;;;;;;5046135;28;20570;-34
2023/09/13 00:17:51;;;;;;;30.48;24.17;;;21.80;68.10;;;;;;5063881;28;20645;-34
2023/09/13 00:20:18;;;;;;;36.75;26.67;;;21.80;68.40;;;;;;5065087;28;20223;-34
2023/09/13 00:22:47;;;;;;;38.78;26.27;;;21.80;68.20;;;;;;5066042;28;20206;-34
2023/09/13 00:25:14;;;;;;;34.40;24.67;;;21.80;68.10;;;;;;5048942;28;20234;-34
2023/09/13 00:27:41;;;;;;;34.45;25.52;;;21.80;68.20;;;;;;5045656;28;20208;-34
2023/09/13 00:30:14;;;;;;;35.08;26.40;;;21.80;68.30;;;;;;5061052;28;20204;-34
2023/09/13 00:32:41;;;;;;;30.17;22.88;;;21.70;68.30;;;;;;5046577;28;20311;-34
2023/09/13 00:35:10;;;;;;;37.17;26.02;;;21.70;68.30;;;;;;5061108;28;20204;-34
2023/09/13 00:37:40;;;;;;;34.38;24.25;;;21.70;68.30;;;;;;5076271;28;20639;-34
2023/09/13 00:40:09;;;;;;;32.72;24.90;;;21.70;68.30;;;;;;5065992;28;20230;-33
2023/09/13 00:42:41;;;;;;;29.25;22.85;;;21.70;68.30;;;;;;5048358;28;20716;-33
2023/09/13 00:45:13;;;;;;;34.92;24.45;;;21.60;68.20;;;;;;5044781;28;20204;-33
2023/09/13 00:47:44;;;;;;;33.15;24.35;;;21.60;68.70;;;;;;5072954;28;20235;-34
2023/09/13 00:50:14;;;;;;;37.17;24.67;;;21.60;68.20;;;;;;5052066;28;20233;-34
2023/09/13 00:52:46;;;;;;;35.88;24.40;;;21.60;68.30;;;;;;5045746;28;20204;-33
2023/09/13 00:55:18;;;;;;;32.40;24.30;;;21.50;68.30;;;;;;5044388;28;20470;-34
2023/09/13 00:57:48;;;;;;;32.70;24.83;;;21.50;68.30;;;;;;5045542;28;20214;-34
2023/09/13 01:00:17;;;;;;;34.17;24.77;;;21.50;68.30;;;;;;5062118;28;20220;-34
2023/09/13 01:02:49;;;;;;;33.22;24.05;;;21.50;68.30;;;;;;5049069;28;20370;-34
2023/09/13 01:05:17;;;;;;;33.30;24.27;;;21.40;68.40;;;;;;5060551;28;20202;-33
2023/09/13 01:07:45;;;;;;;37.38;25.48;;;21.40;68.40;;;;;;5063052;28;20933;-33
2023/09/13 01:10:20;;;;;;;34.83;24.83;;;21.40;68.40;;;;;;5080227;28;20195;-33
2023/09/13 01:12:47;;;;;;;39.40;26.00;;;21.40;68.50;;;;;;5063455;28;20211;-33
2023/09/13 01:15:19;;;;;;;37.25;25.75;;;21.40;68.50;;;;;;5060233;28;20595;-34
2023/09/13 01:18:13;;;;;;;39.88;27.88;;;21.30;68.50;;;;;;5056981;28;20215;-34
2023/09/13 01:21:05;;;;;;;35.67;25.70;;;21.30;68.60;;;;;;5058185;28;20231;-33
2023/09/13 01:23:59;;;;;;;32.70;24.70;;;21.30;68.60;;;;;;5064300;28;20215;-34
2023/09/13 01:26:47;;;;;;;43.75;26.95;;;21.20;68.50;;;;;;5079261;28;20530;-33
2023/09/13 01:29:19;;;;;;;34.03;26.10;;;21.20;68.70;;;;;;5060400;28;20254;-33
2023/09/13 01:31:47;;;;;;;36.35;25.80;;;21.20;68.70;;;;;;5060448;28;20216;-33
2023/09/13 01:34:14;;;;;;;35.55;25.88;;;21.20;68.70;;;;;;5045495;28;20516;-33
2023/09/13 01:36:44;;;;;;;34.53;24.52;;;21.20;68.70;;;;;;5026460;28;20222;-33
2023/09/13 01:39:14;;;;;;;38.00;25.25;;;21.10;68.70;;;;;;5064348;28;20218;-33
2023/09/13 01:41:59;;;;;;;32.90;25.45;;;21.10;68.70;;;;;;5078955;28;20628;-33
2023/09/13 01:44:29;;;;;;;36.67;25.75;;;21.10;68.80;;;;;;5044815;28;20297;-33
2023/09/13 01:46:58;;;;;;;33.28;25.17;;;21.10;68.70;;;;;;5044646;28;20238;-33
2023/09/13 01:49:26;;;;;;;34.92;24.67;;;21.10;68.80;;;;;;5062390;28;20633;-33
2023/09/13 01:51:56;;;;;;;36.90;26.52;;;21.10;68.80;;;;;;5064471;28;20974;-33
2023/09/13 01:54:26;;;;;;;40.80;28.08;;;21.10;68.90;;;;;;5064780;28;20306;-33
2023/09/13 01:56:53;;;;;;;39.30;27.42;;;21.10;68.90;;;;;;5064271;28;20200;-34
2023/09/13 01:59:22;;;;;;;41.00;29.60;;;21.10;69.00;;;;;;5042533;28;20343;-34
2023/09/13 02:01:51;;;;;;;43.42;30.02;;;21.10;68.90;;;;;;5043753;28;20232;-33
2023/09/13 02:04:19;;;;;;;41.25;29.90;;;21.10;68.90;;;;;;5045095;28;20216;-34
2023/09/13 02:06:48;;;;;;;38.00;28.45;;;21.10;68.80;;;;;;5044627;28;20627;-33
2023/09/13 02:09:16;;;;;;;36.15;28.13;;;21.10;68.90;;;;;;5061765;28;20265;-34
2023/09/13 02:11:46;;;;;;;45.85;29.77;;;21.10;68.90;;;;;;5063461;28;20212;-34
2023/09/13 02:14:13;;;;;;;49.00;29.60;;;21.10;68.90;;;;;;5062426;28;20229;-34
2023/09/13 02:16:42;;;;;;;39.33;28.05;;;21.10;68.90;;;;;;5064917;28;20720;-34
2023/09/13 02:19:12;;;;;;;40.85;29.92;;;21.10;69.00;;;;;;5061780;28;20200;-33
2023/09/13 02:21:40;;;;;;;36.50;28.35;;;21.10;68.90;;;;;;5064203;28;20656;-34
2023/09/13 02:24:08;;;;;;;34.47;26.90;;;21.10;68.90;;;;;;5064139;28;20203;-34
2023/09/13 02:26:40;;;;;;;40.47;28.70;;;21.00;68.90;;;;;;5045265;28;20286;-33
2023/09/13 02:29:07;;;;;;;40.78;27.80;;;21.00;69.00;;;;;;5047692;28;20673;-34
2023/09/13 02:31:34;;;;;;;38.25;27.95;;;21.00;68.90;;;;;;5059359;28;20210;-34
2023/09/13 02:34:04;;;;;;;41.10;29.50;;;21.00;69.00;;;;;;5044562;28;20196;-33
2023/09/13 02:36:31;;;;;;;37.83;28.48;;;21.00;69.00;;;;;;5067794;28;20665;-34
2023/09/13 02:38:59;;;;;;;40.60;29.00;;;21.00;69.00;;;;;;5063573;28;20300;-34
2023/09/13 02:41:28;;;;;;;40.72;29.08;;;21.00;69.10;;;;;;5064786;28;20255;-34
2023/09/13 02:43:55;;;;;;;39.80;29.02;;;21.00;69.10;;;;;;5053504;28;20299;-34
2023/09/13 02:46:22;;;;;;;39.40;28.95;;;20.90;69.00;;;;;;5044585;28;20204;-33
2023/09/13 02:48:50;;;;;;;42.97;30.23;;;20.90;69.10;;;;;;5059237;28;20678;-33
2023/09/13 02:51:17;;;;;;;41.95;30.05;;;20.90;69.10;;;;;;5044372;28;20263;-34
2023/09/13 02:53:46;;;;;;;42.58;31.10;;;20.90;69.10;;;;;;5062824;28;20507;-34
2023/09/13 02:56:16;;;;;;;39.10;29.60;;;20.90;69.20;;;;;;5062851;28;20206;-34
2023/09/13 02:58:45;;;;;;;42.70;30.60;;;20.90;69.20;;;;;;5056007;28;20661;-33
2023/09/13 03:01:15;;;;;;;40.13;29.55;;;20.90;69.20;;;;;;5044063;28;20235;-34
2023/09/13 03:03:42;;;;;;;45.75;32.58;;;20.90;69.20;;;;;;5063560;28;20354;-34
2023/09/13 03:06:18;;;;;;;42.92;30.08;;;20.90;69.30;;;;;;5047811;28;20246;-34
2023/09/13 03:08:45;;;;;;;44.75;30.80;;;20.80;69.10;;;;;;5047219;28;20204;-34
2023/09/13 03:11:20;;;;;;;42.55;30.35;;;20.80;69.20;;;;;;5054326;28;20311;-34
2023/09/13 03:13:50;;;;;;;44.90;32.30;;;20.80;69.30;;;;;;5048279;28;20220;-34
2023/09/13 03:16:23;;;;;;;45.20;31.67;;;20.80;69.30;;;;;;5030610;28;20283;-34
2023/09/13 03:18:53;;;;;;;41.40;28.95;;;20.80;69.20;;;;;;5050075;28;20204;-33
2023/09/13 03:21:22;;;;;;;42.90;32.00;;;20.80;69.30;;;;;;5082813;28;20320;-34
2023/09/13 03:23:54;;;;;;;41.05;31.05;;;20.70;69.20;;;;;;5065462;28;20191;-34
2023/09/13 03:26:25;;;;;;;42.10;30.95;;;20.80;69.30;;;;;;5067736;28;20570;-34
2023/09/13 03:28:55;;;;;;;40.45;30.80;;;20.70;69.30;;;;;;5077480;28;20200;-34
2023/09/13 03:31:28;;;;;;;45.83;30.60;;;20.70;69.30;;;;;;5047702;28;20243;-33
2023/09/13 03:33:56;;;;;;;40.50;30.20;;;20.70;69.30;;;;;;5047364;28;20214;-34
2023/09/13 03:36:29;;;;;;;43.88;31.95;;;20.70;69.40;;;;;;5061101;28;20309;-34
2023/09/13 03:38:58;;;;;;;41.30;28.60;;;20.70;69.40;;;;;;5045400;28;20634;-34
2023/09/13 03:41:26;;;;;;;41.22;30.60;;;20.60;69.30;;;;;;5062323;28;20289;-34
2023/09/13 03:43:55;;;;;;;46.28;32.30;;;20.60;69.40;;;;;;5046329;28;20195;-34
2023/09/13 03:46:25;;;;;;;42.08;30.60;;;20.70;69.50;;;;;;5062396;28;20696;-33
2023/09/13 03:48:52;;;;;;;41.33;31.05;;;20.60;69.50;;;;;;5061786;28;20315;-33
2023/09/13 03:51:19;;;;;;;40.15;28.92;;;20.60;69.40;;;;;;5047361;28;20211;-34
2023/09/13 03:53:51;;;;;;;45.17;31.00;;;20.70;69.40;;;;;;5061659;28;20279;-34
2023/09/13 03:56:18;;;;;;;46.33;29.45;;;20.60;69.40;;;;;;5063934;28;20219;-34
2023/09/13 03:58:46;;;;;;;41.40;28.83;;;20.60;69.40;;;;;;5066111;28;20218;-34
2023/09/13 04:01:18;;;;;;;41.58;29.30;;;20.60;69.50;;;;;;5046798;28;20341;-34
2023/09/13 04:03:47;;;;;;;37.78;27.20;;;20.60;69.50;;;;;;5047009;28;20196;-33
2023/09/13 04:06:16;;;;;;;38.08;27.25;;;20.60;70.40;;;;;;5062200;28;20265;-34
2023/09/13 04:08:48;;;;;;;38.00;26.58;;;20.60;69.50;;;;;;5080877;28;20222;-34
2023/09/13 04:11:15;;;;;;;36.47;26.20;;;20.60;69.60;;;;;;5067084;28;20195;-26
2023/09/13 04:13:45;;;;;;;37.78;25.88;;;20.60;69.60;;;;;;5065910;28;20712;-26
2023/09/13 04:16:15;;;;;;;40.95;26.17;;;20.60;69.70;;;;;;5065279;28;20212;-26
2023/09/13 04:18:45;;;;;;;42.85;26.73;;;20.60;69.60;;;;;;5065081;28;20211;-34
2023/09/13 04:21:12;;;;;;;37.72;24.92;;;20.60;69.60;;;;;;5081798;28;20577;-34
2023/09/13 04:23:40;;;;;;;43.53;26.20;;;20.60;69.60;;;;;;5081058;28;21070;-34
2023/09/13 04:26:07;;;;;;;37.95;25.50;;;20.60;69.70;;;;;;5073248;28;20210;-34
2023/09/13 04:28:34;;;;;;;35.78;22.63;;;20.60;69.70;;;;;;5044553;28;20611;-34
2023/09/13 04:31:06;;;;;;;40.70;24.35;;;20.60;69.70;;;;;;5045726;28;20315;-34
2023/09/13 04:34:05;;;;;;;34.47;24.05;;;20.60;69.70;;;;;;5046083;28;20231;-34
2023/09/13 04:36:32;;;;;;;34.80;25.52;;;20.60;69.90;;;;;;5002035;28;20214;-34
2023/09/13 04:39:04;;;;;;;34.92;24.13;;;20.60;69.80;;;;;;5049066;28;20233;-34
2023/09/13 04:41:31;;;;;;;32.30;23.05;;;20.60;69.80;;;;;;5058319;28;20223;-34
2023/09/13 04:44:01;;;;;;;37.92;24.30;;;20.60;69.80;;;;;;5060753;28;20204;-34
2023/09/13 04:46:34;;;;;;;32.08;24.10;;;20.60;69.80;;;;;;5063661;28;20253;-34
2023/09/13 04:49:01;;;;;;;40.65;25.45;;;20.60;69.90;;;;;;5066108;28;20339;-34
2023/09/13 04:51:28;;;;;;;37.03;23.98;;;20.60;69.90;;;;;;5062111;28;20220;-34
2023/09/13 04:53:55;;;;;;;37.85;25.10;;;20.60;69.90;;;;;;5062078;28;20294;-34
2023/09/13 04:56:22;;;;;;;36.88;25.02;;;20.60;69.90;;;;;;5061536;28;20224;-34
2023/09/13 04:58:51;;;;;;;31.80;22.30;;;20.60;69.90;;;;;;5059837;28;20240;-34
2023/09/13 05:01:18;;;;;;;34.63;23.38;;;20.60;69.80;;;;;;5063384;28;20650;-34
2023/09/13 05:03:52;;;;;;;41.42;25.23;;;20.60;69.90;;;;;;5051670;28;20571;-34
2023/09/13 05:06:19;;;;;;;41.92;25.20;;;20.60;69.90;;;;;;5059696;28;20205;-34
2023/09/13 05:08:46;;;;;;;35.90;25.05;;;20.60;69.90;;;;;;5050348;28;20294;-34
2023/09/13 05:11:16;;;;;;;41.22;23.75;;;20.60;69.90;;;;;;5054345;28;20188;-34
2023/09/13 05:13:47;;;;;;;35.33;24.63;;;20.60;70.00;;;;;;5056562;28;20235;-34
2023/09/13 05:16:19;;;;;;;36.55;22.80;;;20.60;70.00;;;;;;5053645;28;20223;-27
2023/09/13 05:18:47;;;;;;;40.45;25.20;;;20.60;69.90;;;;;;5055087;28;20294;-27
2023/09/13 05:21:14;;;;;;;40.03;26.00;;;20.60;70.00;;;;;;5059734;28;20630;-25
2023/09/13 05:23:41;;;;;;;41.05;24.67;;;20.70;70.10;;;;;;5042994;28;20294;-26
2023/09/13 05:26:13;;;;;;;42.10;26.27;;;20.70;70.10;;;;;;5058844;28;20286;-26
2023/09/13 05:28:41;;;;;;;46.00;25.85;;;20.70;70.20;;;;;;5061180;28;20676;-33
2023/09/13 05:31:08;;;;;;;39.17;24.42;;;20.70;70.20;;;;;;5066249;28;20659;-33
2023/09/13 05:33:38;;;;;;;32.83;22.60;;;20.70;70.20;;;;;;5050313;28;20200;-33
2023/09/13 05:36:09;;;;;;;35.28;24.42;;;20.70;70.20;;;;;;5056468;28;20219;-33
2023/09/13 05:38:41;;;;;;;43.63;25.27;;;20.70;70.20;;;;;;5057529;28;20231;-34
2023/09/13 05:41:11;;;;;;;42.83;26.17;;;20.70;70.20;;;;;;5064850;28;20219;-34
2023/09/13 05:43:40;;;;;;;39.85;24.85;;;20.70;70.20;;;;;;5064651;28;20294;-33
2023/09/13 05:46:10;;;;;;;35.20;24.23;;;20.70;70.30;;;;;;5070032;28;20286;-34
2023/09/13 05:48:38;;;;;;;35.05;25.67;;;20.80;70.30;;;;;;5050775;28;20219;-34
2023/09/13 05:51:05;;;;;;;33.40;23.50;;;20.80;70.40;;;;;;5049018;28;20235;-33
2023/09/13 05:53:34;;;;;;;35.40;24.20;;;20.80;70.30;;;;;;5056399;28;20673;-34
2023/09/13 05:56:09;;;;;;;35.50;24.20;;;20.80;70.30;;;;;;5058546;28;20281;-33
2023/09/13 05:58:37;;;;;;;34.80;23.15;;;20.80;70.30;;;;;;5062070;28;20640;-34
2023/09/13 06:01:05;;;;;;;35.13;23.15;;;20.80;70.30;;;;;;5062720;28;20239;-34
2023/09/13 06:03:33;;;;;;;33.47;24.02;;;20.90;70.30;;;;;;5050627;28;20226;-34
2023/09/13 06:06:00;;;;;;;46.03;24.85;;;20.90;70.40;;;;;;5051810;28;20200;-34
2023/09/13 06:08:30;;;;;;;42.28;25.65;;;20.90;70.40;;;;;;5063058;28;20204;-34
2023/09/13 06:10:59;;;;;;;30.65;22.70;;;20.90;70.40;;;;;;5047328;28;20294;-34
2023/09/13 06:13:31;;;;;;;37.90;25.45;;;20.90;70.30;;;;;;5051587;28;20627;-34
2023/09/13 06:15:58;;;;;;;44.20;25.52;;;20.90;70.40;;;;;;5045733;28;20688;-34
2023/09/13 06:18:31;;;;;;;40.72;25.00;;;20.90;70.40;;;;;;5062898;28;20613;-34
2023/09/13 06:20:59;;;;;;;40.85;26.63;;;20.90;70.40;;;;;;5061571;28;20224;-34
2023/09/13 06:23:36;;;;;;;41.13;25.85;;;21.00;70.40;;;;;;5064105;28;20290;-34
2023/09/13 06:26:04;;;;;;;35.53;24.55;;;21.00;70.50;;;;;;5055984;28;20200;-34
2023/09/13 06:28:33;;;;;;;43.63;25.63;;;21.00;70.30;;;;;;5043481;28;20203;-34
2023/09/13 06:31:03;;;;;;;36.65;23.48;;;21.00;70.40;;;;;;5058476;28;20265;-34
2023/09/13 06:33:31;;;;;;;35.35;24.50;;;21.00;70.40;;;;;;5048855;28;20228;-34
2023/09/13 06:36:13;;;;;;;34.63;25.67;;;21.00;70.50;;;;;;5052613;28;20665;-34
2023/09/13 06:38:44;;;;;;;39.45;26.35;;;21.00;70.50;;;;;;5047663;28;20212;-35
2023/09/13 06:41:11;;;;;;;40.85;27.02;;;21.00;70.50;;;;;;5054880;28;20219;-34
2023/09/13 06:43:43;;;;;;;37.35;25.52;;;21.10;70.60;;;;;;5066307;28;20290;-33
2023/09/13 06:46:30;;;;;;;40.83;27.33;;;21.10;70.60;;;;;;5058803;28;20207;-34
2023/09/13 06:49:02;;;;;;;39.85;28.00;;;21.10;70.60;;;;;;5054592;28;20204;-34
2023/09/13 06:51:31;;;;;;;46.95;30.27;;;21.10;70.50;;;;;;5060451;28;20270;-34
2023/09/13 06:54:20;;;;;;;43.95;28.25;;;21.10;70.60;;;;;;5054286;28;20678;-34
2023/09/13 06:56:51;;;;;;;45.50;30.42;;;21.10;70.50;;;;;;5047681;28;20212;-34
2023/09/13 06:59:26;;;;;;;44.33;27.48;;;21.10;70.50;;;;;;5047954;28;20216;-34
2023/09/13 07:01:56;;;;;;;40.47;27.80;;;21.10;70.60;;;;;;5064282;28;20236;-34
2023/09/13 07:04:46;;;;;;;42.53;27.85;;;21.10;70.60;;;;;;5066237;28;20325;-34
2023/09/13 07:07:33;;;;;;;39.25;27.30;;;21.10;70.60;;;;;;5050152;28;20208;-34
2023/09/13 07:10:03;;;;;;;41.17;27.58;;;21.20;71.20;;;;;;5050993;28;20208;-34
2023/09/13 07:12:32;;;;;;;47.50;30.52;;;21.20;70.80;;;;;;5049206;28;20303;-34
2023/09/13 07:15:02;;;;;;;46.03;27.95;;;21.20;70.60;;;;;;5065773;28;20248;-34
2023/09/13 07:17:31;;;;;;;39.83;27.75;;;21.20;70.70;;;;;;5074167;28;20661;-34
2023/09/13 07:20:07;;;;;;;44.72;29.83;;;21.20;70.70;;;;;;5054446;28;20196;-34
2023/09/13 07:22:34;;;;;;;44.50;30.92;;;21.20;70.70;;;;;;5057838;28;20229;-34
2023/09/13 07:25:04;;;;;;;40.67;28.85;;;21.30;70.80;;;;;;5061740;28;20215;-34
2023/09/13 07:27:33;;;;;;;39.42;26.42;;;21.30;70.80;;;;;;5061359;28;20266;-34
2023/09/13 07:30:02;;;;;;;43.00;28.17;;;21.30;70.80;;;;;;5049044;28;20192;-33
2023/09/13 07:32:29;;;;;;;37.67;25.67;;;21.30;70.70;;;;;;5050168;28;20228;-33
2023/09/13 07:34:59;;;;;;;31.52;22.67;;;21.30;70.70;;;;;;5075269;28;20203;-33
2023/09/13 07:37:31;;;;;;;32.28;21.25;;;21.30;70.70;;;;;;5081197;28;20191;-33
2023/09/13 07:39:59;;;;;;;28.90;19.17;;;21.30;70.80;;;;;;5064738;28;20211;-34
2023/09/13 07:42:26;;;;;;;24.98;17.30;;;21.30;70.70;;;;;;5064510;28;20223;-34
2023/09/13 07:44:53;;;;;;;24.00;15.60;;;21.30;70.70;;;;;;5060019;28;20308;-33
2023/09/13 07:47:22;;;;;;;24.65;14.40;;;21.30;70.70;;;;;;5045623;28;20425;-33
2023/09/13 07:49:49;;;;;;;17.55;13.48;;;21.30;70.70;;;;;;5044863;28;20212;-34
2023/09/13 07:52:19;;;;;;;23.40;13.23;;;21.30;70.70;;;;;;5052185;28;20656;-34
2023/09/13 07:54:46;;;;;;;17.75;12.45;;;21.30;70.70;;;;;;5045413;28;20224;-33
2023/09/13 07:57:16;;;;;;;22.67;12.38;;;21.40;70.70;;;;;;5054613;28;20782;-34
2023/09/13 07:59:49;;;;;;;17.75;12.13;;;21.40;70.90;;;;;;5063859;28;20207;-34
2023/09/13 08:02:16;;;;;;;17.48;12.63;;;21.40;70.80;;;;;;5053193;28;20278;-34
2023/09/13 08:04:49;;;;;;;17.15;11.93;;;21.40;70.80;;;;;;5042975;28;20211;-34
2023/09/13 08:07:17;;;;;;;18.65;10.90;;;21.40;70.90;;;;;;5051279;28;20208;-34
2023/09/13 08:09:44;;;;;;;13.20;10.48;;;21.50;71.00;;;;;;5069998;28;20323;-33
2023/09/13 08:12:11;;;;;;;16.85;9.20;;;21.40;70.90;;;;;;5068208;28;20386;-33
2023/09/13 08:14:39;;;;;;;12.10;8.75;;;21.50;70.80;;;;;;5068093;28;20399;-34
2023/09/13 08:17:08;;;;;;;12.68;8.65;;;21.50;70.90;;;;;;5078127;28;20229;-33
2023/09/13 08:19:37;;;;;;;15.68;8.63;;;21.50;70.90;;;;;;5052661;28;20479;-26
2023/09/13 08:22:05;;;;;;;14.88;8.20;;;21.50;70.90;;;;;;5059707;28;20591;-26
2023/09/13 08:24:32;;;;;;;12.07;7.78;;;21.50;70.90;;;;;;5046527;28;20208;-26
2023/09/13 08:27:00;;;;;;;12.30;7.93;;;21.50;70.80;;;;;;5053179;28;20344;-26
2023/09/13 08:29:31;;;;;;;14.52;7.75;;;21.60;70.90;;;;;;5046765;28;20875;-26
2023/09/13 08:32:01;;;;;;;12.80;7.60;;;21.60;70.90;;;;;;5047106;28;20295;-26
2023/09/13 08:34:32;;;;;;;14.75;8.05;;;21.60;70.90;;;;;;5058498;28;20224;-28
2023/09/13 08:36:59;;;;;;;11.23;6.72;;;21.60;70.90;;;;;;5055894;28;20199;-25
2023/09/13 08:39:26;;;;;;;17.85;6.55;;;21.60;70.90;;;;;;5060757;28;20622;-26
2023/09/13 08:41:58;;;;;;;11.60;6.85;;;21.70;71.00;;;;;;5063399;28;20227;-26
2023/09/13 08:44:29;;;;;;;8.68;5.68;;;21.70;71.00;;;;;;5028443;28;20763;-26
2023/09/13 08:47:01;;;;;;;10.98;5.78;;;21.70;71.00;;;;;;5072349;28;21145;-25
2023/09/13 08:49:30;;;;;;;8.88;5.15;;;21.70;71.00;;;;;;5066032;28;20199;-25
2023/09/13 08:52:01;;;;;;;11.70;5.35;;;21.70;71.00;;;;;;5048785;28;20780;-26
2023/09/13 08:54:31;;;;;;;24.30;6.82;;;21.70;70.90;;;;;;5060589;28;20219;-26
2023/09/13 08:57:20;;;;;;;11.32;6.00;;;21.80;70.90;;;;;;5050571;28;20199;-26
2023/09/13 08:59:48;;;;;;;13.35;6.28;;;21.80;70.90;;;;;;5047966;28;20200;-25
2023/09/13 09:02:19;;;;;;;11.75;6.63;;;21.80;70.90;;;;;;5060442;28;20346;-26
2023/09/13 09:04:49;;;;;;;10.00;6.93;;;21.80;70.90;;;;;;5060729;28;20682;-26
2023/09/13 09:07:18;;;;;;;13.07;6.40;;;21.80;70.90;;;;;;5045659;28;20317;-25
2023/09/13 09:09:47;;;;;;;19.17;9.82;;;21.80;70.90;;;;;;5063011;28;20191;-26
2023/09/13 09:12:26;;;;;;;17.45;10.80;;;21.80;71.00;;;;;;5045632;28;20317;-26
2023/09/13 09:14:57;;;;;;;24.80;11.13;;;21.80;71.00;;;;;;5049549;28;20541;-26
2023/09/13 09:17:26;;;;;;;16.88;10.57;;;21.90;71.00;;;;;;5052637;28;20649;-26
2023/09/13 09:19:54;;;;;;;19.23;10.98;;;21.90;71.00;;;;;;5047102;28;20702;-26
2023/09/13 09:22:21;;;;;;;17.15;10.68;;;21.80;70.90;;;;;;5047439;28;20293;-26
2023/09/13 09:24:51;;;;;;;16.05;10.90;;;21.90;71.00;;;;;;5067336;28;20346;-26
2023/09/13 09:27:18;;;;;;;18.48;10.40;;;21.90;71.00;;;;;;5062803;28;20322;-25
2023/09/13 09:29:46;;;;;;;14.57;9.52;;;21.90;71.10;;;;;;5057942;28;20292;-26
2023/09/13 09:32:15;;;;;;;18.10;9.63;;;21.90;71.10;;;;;;5059247;28;20207;-26
2023/09/13 09:34:42;;;;;;;16.70;9.95;;;22.00;71.20;;;;;;5057223;28;20208;-33
2023/09/13 09:37:10;;;;;;;16.10;10.45;;;22.00;71.10;;;;;;5052252;28;20218;-33
2023/09/13 09:39:40;;;;;;;15.45;9.82;;;22.00;71.00;;;;;;5070719;28;20712;-34
2023/09/13 09:42:13;;;;;;;16.17;9.32;;;22.00;71.10;;;;;;5048135;28;20695;-33
2023/09/13 09:44:40;;;;;;;16.10;8.75;;;22.10;71.00;;;;;;5045285;28;20204;-34
2023/09/13 09:47:11;;;;;;;11.88;8.68;;;22.10;70.90;;;;;;5063063;28;20692;-33
2023/09/13 09:49:40;;;;;;;15.68;9.82;;;22.10;71.10;;;;;;5064901;28;20294;-34
2023/09/13 09:52:14;;;;;;;14.88;9.52;;;22.10;71.20;;;;;;5055015;28;20331;-33
2023/09/13 09:54:48;;;;;;;17.48;10.00;;;22.20;71.20;;;;;;5044134;28;20212;-33
2023/09/13 09:57:21;;;;;;;12.88;8.73;;;22.20;71.20;;;;;;5054543;28;20204;-33
2023/09/13 09:59:49;;;;;;;13.00;7.78;;;22.20;71.20;;;;;;5063431;28;20207;-33
2023/09/13 10:02:16;;;;;;;12.68;6.78;;;22.20;71.00;;;;;;5063668;28;20227;-33
2023/09/13 10:04:45;;;;;;;8.02;5.13;;;22.30;71.20;;;;;;5044186;28;20590;-33
2023/09/13 10:07:12;;;;;;;9.43;4.43;;;22.20;70.90;;;;;;5065578;28;20291;-34
2023/09/13 10:09:41;;;;;;;9.32;4.70;;;22.10;70.50;;;;;;5061689;28;20207;-33
2023/09/13 10:12:12;;;;;;;7.13;3.88;;;22.10;70.40;;;;;;5046662;28;20231;-34
2023/09/13 10:14:45;;;;;;;7.55;3.00;;;22.00;70.30;;;;;;5048974;28;20219;-34
2023/09/13 10:17:12;;;;;;;7.82;3.42;;;22.00;70.30;;;;;;5049931;28;20620;-29
2023/09/13 10:19:42;;;;;;;8.63;3.60;;;21.90;70.30;;;;;;5061894;28;20268;-25
2023/09/13 10:22:17;;;;;;;9.02;2.72;;;21.80;70.30;;;;;;5075682;28;20734;-26
2023/09/13 10:24:52;;;;;;;5.15;2.45;;;21.80;70.40;;;;;;5049853;28;20208;-25
2023/09/13 10:27:28;;;;;;;5.65;2.88;;;21.70;70.40;;;;;;5045655;28;20636;-26
2023/09/13 10:30:00;;;;;;;5.03;2.78;;;21.60;70.40;;;;;;5053847;28;20669;-26
2023/09/13 10:32:37;;;;;;;5.63;2.78;;;21.60;70.60;;;;;;5069219;28;20570;-26
2023/09/13 10:35:08;;;;;;;4.72;3.25;;;21.50;70.40;;;;;;5055803;28;20302;-26
2023/09/13 10:37:57;;;;;;;4.70;3.58;;;21.50;70.40;;;;;;5054114;28;20220;-25
2023/09/13 10:40:53;;;;;;;5.22;2.60;;;21.50;70.30;;;;;;5054564;28;20224;-26
2023/09/13 10:43:26;;;;;;;5.75;3.00;;;21.50;70.40;;;;;;5042950;28;20227;-26
2023/09/13 10:45:57;;;;;;;5.68;2.83;;;21.40;70.30;;;;;;5062060;28;20710;-26
2023/09/13 10:48:25;;;;;;;4.68;2.80;;;21.40;71.10;;;;;;5059471;28;20701;-26
2023/09/13 10:50:55;;;;;;;6.90;3.05;;;21.30;70.30;;;;;;5048469;28;20323;-26
2023/09/13 10:53:25;;;;;;;3.92;2.78;;;21.30;70.20;;;;;;5073549;28;20276;-26
2023/09/13 10:55:54;;;;;;;4.57;2.80;;;21.30;70.40;;;;;;5074272;28;20212;-26
2023/09/13 10:58:24;;;;;;;5.18;2.70;;;21.20;70.30;;;;;;5066821;28;20725;-26
2023/09/13 11:00:54;;;;;;;6.80;2.47;;;21.30;70.40;;;;;;5051877;28;20341;-26
2023/09/13 11:03:24;;;;;;;5.88;2.63;;;21.30;70.40;;;;;;5050862;28;20717;-26
2023/09/13 11:05:57;;;;;;;7.03;3.05;;;21.30;70.50;;;;;;5076354;28;20232;-26
2023/09/13 11:08:33;;;;;;;5.80;3.53;;;21.30;70.50;;;;;;5052282;28;20211;-26
2023/09/13 11:11:29;;;;;;;6.38;3.58;;;21.30;70.40;;;;;;5045975;28;20893;-26
2023/09/13 11:14:09;;;;;;;9.00;3.80;;;21.40;70.50;;;;;;5042724;28;20208;-26
2023/09/13 11:16:45;;;;;;;9.57;5.10;;;21.30;70.30;;;;;;5057949;28;20227;-26
2023/09/13 11:19:16;;;;;;;9.00;4.78;;;21.40;70.30;;;;;;5046581;28;20274;-25
2023/09/13 11:21:57;;;;;;;5.93;3.17;;;21.40;70.30;;;;;;5053777;28;20223;-25
2023/09/13 11:24:34;;;;;;;3.47;2.80;;;21.30;70.00;;;;;;5048523;28;20227;-25
2023/09/13 11:27:15;;;;;;;3.17;2.30;;;21.30;70.10;;;;;;5055282;28;20293;-25
2023/09/13 11:29:44;;;;;;;5.50;2.75;;;21.30;70.70;;;;;;5064906;28;20543;-26
2023/09/13 11:32:17;;;;;;;3.60;2.40;;;21.30;70.00;;;;;;5045774;28;20314;-25
2023/09/13 11:34:54;;;;;;;5.28;2.53;;;21.30;70.00;;;;;;5047201;28;20283;-26
2023/09/13 11:37:24;;;;;;;5.22;2.05;;;21.30;70.00;;;;;;5050218;28;20214;-26
2023/09/13 11:40:13;;;;;;;3.13;2.78;;;21.30;70.10;;;;;;5046602;28;20319;-26
2023/09/13 11:42:41;;;;;;;2.83;1.52;;;21.40;70.20;;;;;;5056233;28;20728;-26
2023/09/13 11:45:12;;;;;;;2.22;1.60;;;21.40;69.70;;;;;;5062369;28;20203;-26
2023/09/13 11:48:00;;;;;;;1.58;1.27;;;21.40;69.50;;;;;;5050069;28;20449;-26
2023/09/13 11:50:44;;;;;;;5.20;1.83;;;21.30;69.10;;;;;;5051649;28;20291;-26
2023/09/13 11:53:19;;;;;;;1.67;1.40;;;21.20;69.00;;;;;;5044810;28;20307;-26
2023/09/13 11:55:55;;;;;;;1.48;1.38;;;21.20;69.10;;;;;;5045667;28;20192;-26
2023/09/13 11:58:40;;;;;;;2.00;1.50;;;21.10;69.40;;;;;;5054001;28;20292;-26
2023/09/13 12:01:31;;;;;;;1.50;1.40;;;21.10;69.20;;;;;;5073869;28;20804;-26
2023/09/13 12:04:04;;;;;;;3.92;1.90;;;21.10;69.10;;;;;;5051511;28;20230;-26
2023/09/13 12:06:47;;;;;;;3.25;1.98;;;21.10;68.80;;;;;;5049614;28;20846;-26
2023/09/13 12:09:20;;;;;;;2.78;2.58;;;21.00;68.70;;;;;;5048087;28;20219;-27
2023/09/13 12:11:57;;;;;;;3.20;2.40;;;21.00;68.70;;;;;;5046997;28;20219;-26
2023/09/13 12:14:32;;;;;;;3.80;2.40;;;21.00;68.60;;;;;;5047070;28;20630;-26
2023/09/13 12:17:22;;;;;;;3.70;2.40;;;21.00;68.70;;;;;;5074899;28;20696;-26
2023/09/13 12:19:55;;;;;;;4.25;3.13;;;20.90;69.30;;;;;;5073816;28;20269;-26
2023/09/13 12:22:22;;;;;;;4.32;3.50;;;20.90;68.40;;;;;;5063081;28;20196;-26
2023/09/13 12:24:52;;;;;;;2.90;2.70;;;20.90;68.50;;;;;;5057720;28;20220;-26
2023/09/13 12:27:22;;;;;;;2.55;2.33;;;20.90;68.60;;;;;;5044883;28;20224;-26
2023/09/13 12:29:54;;;;;;;3.88;2.38;;;20.90;67.50;;;;;;5046322;28;20207;-26
2023/09/13 12:32:22;;;;;;;3.28;2.80;;;20.90;67.70;;;;;;5064563;28;20218;-26
2023/09/13 12:34:49;;;;;;;2.70;2.50;;;20.90;67.80;;;;;;5050894;28;20309;-26
2023/09/13 12:37:21;;;;;;;2.80;2.55;;;20.90;67.90;;;;;;5046202;28;20211;-26
2023/09/13 12:39:51;;;;;;;1.80;1.70;;;20.90;67.70;;;;;;5052198;28;20405;-26
2023/09/13 12:42:18;;;;;;;2.70;1.52;;;20.90;68.10;;;;;;5064111;28;20292;-26
2023/09/13 12:44:48;;;;;;;2.75;1.30;;;20.90;67.90;;;;;;5055197;28;20224;-26
2023/09/13 12:47:17;;;;;;;2.28;1.40;;;20.90;67.50;;;;;;5061129;28;20196;-26
2023/09/13 12:49:50;;;;;;;2.60;1.10;;;20.90;67.60;;;;;;5061584;28;20200;-26
2023/09/13 12:52:18;;;;;;;2.40;1.30;;;20.90;67.80;;;;;;5046270;28;20200;-26